sensor_id;sensor_type;location;lat;lon;timestamp;P1;durP1;ratioP1;P2;durP2;ratioP2
58272;SDS011;44075;42.436;18.514;2022-10-17T06:03:52;12.02;;;7.72;;
58272;SDS011;44075;42.436;18.514;2022-10-17T06:38:45;10.50;;;6.88;;
58272;SDS011;44075;42.436;18.514;2022-10-17T06:41:40;17.20;;;7.65;;
58272;SDS011;44075;42.436;18.514;2022-10-17T06:44:37;12.13;;;6.72;;
58272;SDS011;44075;42.436;18.514;2022-10-17T06:50:59;12.10;;;6.75;;
58272;SDS011;44075;42.436;18.514;2022-10-17T06:53:44;13.60;;;7.25;;
58272;SDS011;44075;42.436;18.514;2022-10-17T06:56:27;12.23;;;7.03;;
58272;SDS011;44075;42.436;18.514;2022-10-17T06:58:55;20.60;;;8.90;;
58272;SDS011;44075;42.436;18.514;2022-10-17T07:01:24;13.55;;;7.82;;
58272;SDS011;44075;42.436;18.514;2022-10-17T07:04:05;15.23;;;7.25;;
58272;SDS011;44075;42.436;18.514;2022-10-17T07:06:42;11.65;;;6.88;;
58272;SDS011;44075;42.436;18.514;2022-10-17T07:09:30;12.10;;;7.50;;
58272;SDS011;44075;42.436;18.514;2022-10-17T07:12:10;13.10;;;7.68;;
58272;SDS011;44075;42.436;18.514;2022-10-17T07:14:42;12.27;;;7.97;;
58272;SDS011;44075;42.436;18.514;2022-10-17T07:17:16;14.73;;;9.05;;
58272;SDS011;44075;42.436;18.514;2022-10-17T07:19:45;12.05;;;8.07;;
58272;SDS011;44075;42.436;18.514;2022-10-17T07:22:11;13.20;;;8.57;;
58272;SDS011;44075;42.436;18.514;2022-10-17T07:24:40;11.82;;;7.75;;
58272;SDS011;44075;42.436;18.514;2022-10-17T07:27:06;11.60;;;8.70;;
58272;SDS011;44075;42.436;18.514;2022-10-17T07:29:32;12.52;;;8.43;;
58272;SDS011;44075;42.436;18.514;2022-10-17T07:32:01;12.00;;;8.65;;
58272;SDS011;44075;42.436;18.514;2022-10-17T07:34:30;13.68;;;8.52;;
58272;SDS011;44075;42.436;18.514;2022-10-17T07:36:56;13.10;;;9.20;;
58272;SDS011;44075;42.436;18.514;2022-10-17T07:39:25;13.82;;;9.55;;
58272;SDS011;44075;42.436;18.514;2022-10-17T07:41:51;13.45;;;9.52;;
58272;SDS011;44075;42.436;18.514;2022-10-17T07:44:17;13.80;;;10.10;;
58272;SDS011;44075;42.436;18.514;2022-10-17T07:46:44;13.80;;;9.40;;
58272;SDS011;44075;42.436;18.514;2022-10-17T07:49:10;14.80;;;9.98;;
58272;SDS011;44075;42.436;18.514;2022-10-17T07:51:36;12.93;;;9.50;;
58272;SDS011;44075;42.436;18.514;2022-10-17T07:54:03;14.95;;;10.38;;
58272;SDS011;44075;42.436;18.514;2022-10-17T07:56:30;12.95;;;10.00;;
58272;SDS011;44075;42.436;18.514;2022-10-17T07:58:58;13.48;;;10.07;;
58272;SDS011;44075;42.436;18.514;2022-10-17T08:01:29;13.60;;;9.85;;
58272;SDS011;44075;42.436;18.514;2022-10-17T08:03:55;14.85;;;10.38;;
58272;SDS011;44075;42.436;18.514;2022-10-17T08:06:21;12.38;;;9.40;;
58272;SDS011;44075;42.436;18.514;2022-10-17T08:08:47;13.27;;;9.75;;
58272;SDS011;44075;42.436;18.514;2022-10-17T08:11:16;14.05;;;9.10;;
58272;SDS011;44075;42.436;18.514;2022-10-17T08:13:43;11.98;;;9.13;;
58272;SDS011;44075;42.436;18.514;2022-10-17T08:16:10;12.32;;;8.65;;
58272;SDS011;44075;42.436;18.514;2022-10-17T08:18:37;15.13;;;8.88;;
58272;SDS011;44075;42.436;18.514;2022-10-17T08:21:09;12.15;;;9.05;;
58272;SDS011;44075;42.436;18.514;2022-10-17T08:23:56;12.13;;;8.27;;
58272;SDS011;44075;42.436;18.514;2022-10-17T08:26:29;13.45;;;7.88;;
58272;SDS011;44075;42.436;18.514;2022-10-17T08:28:56;11.45;;;8.77;;
58272;SDS011;44075;42.436;18.514;2022-10-17T08:31:22;11.80;;;8.48;;
58272;SDS011;44075;42.436;18.514;2022-10-17T08:33:48;11.90;;;8.00;;
58272;SDS011;44075;42.436;18.514;2022-10-17T08:36:24;10.55;;;7.40;;
58272;SDS011;44075;42.436;18.514;2022-10-17T08:38:55;11.13;;;8.32;;
58272;SDS011;44075;42.436;18.514;2022-10-17T08:47:00;12.52;;;7.93;;
58272;SDS011;44075;42.436;18.514;2022-10-17T08:52:01;11.63;;;7.85;;
58272;SDS011;44075;42.436;18.514;2022-10-17T08:54:39;12.73;;;8.38;;
58272;SDS011;44075;42.436;18.514;2022-10-17T08:57:17;12.05;;;8.25;;
58272;SDS011;44075;42.436;18.514;2022-10-17T08:59:44;11.45;;;7.93;;
58272;SDS011;44075;42.436;18.514;2022-10-17T09:19:08;12.13;;;7.00;;
58272;SDS011;44075;42.436;18.514;2022-10-17T09:21:57;11.63;;;7.50;;
58272;SDS011;44075;42.436;18.514;2022-10-17T09:24:23;11.10;;;6.88;;
58272;SDS011;44075;42.436;18.514;2022-10-17T09:27:00;10.82;;;7.50;;
58272;SDS011;44075;42.436;18.514;2022-10-17T09:29:32;11.65;;;7.93;;
58272;SDS011;44075;42.436;18.514;2022-10-17T09:32:09;11.33;;;7.63;;
58272;SDS011;44075;42.436;18.514;2022-10-17T09:34:39;10.48;;;7.53;;
58272;SDS011;44075;42.436;18.514;2022-10-17T09:37:11;13.73;;;8.10;;
58272;SDS011;44075;42.436;18.514;2022-10-17T09:39:38;11.85;;;8.10;;
58272;SDS011;44075;42.436;18.514;2022-10-17T09:42:07;10.50;;;7.80;;
58272;SDS011;44075;42.436;18.514;2022-10-17T09:44:44;11.00;;;7.95;;
58272;SDS011;44075;42.436;18.514;2022-10-17T09:49:42;11.23;;;7.72;;
58272;SDS011;44075;42.436;18.514;2022-10-17T09:52:19;11.35;;;7.95;;
58272;SDS011;44075;42.436;18.514;2022-10-17T09:54:49;12.25;;;8.23;;
58272;SDS011;44075;42.436;18.514;2022-10-17T09:57:19;13.63;;;8.75;;
58272;SDS011;44075;42.436;18.514;2022-10-17T09:59:46;10.45;;;7.90;;
58272;SDS011;44075;42.436;18.514;2022-10-17T10:02:17;11.05;;;8.02;;
58272;SDS011;44075;42.436;18.514;2022-10-17T10:07:19;11.93;;;8.70;;
58272;SDS011;44075;42.436;18.514;2022-10-17T10:09:46;14.18;;;8.85;;
58272;SDS011;44075;42.436;18.514;2022-10-17T10:12:20;12.88;;;7.93;;
58272;SDS011;44075;42.436;18.514;2022-10-17T10:14:46;12.77;;;8.70;;
58272;SDS011;44075;42.436;18.514;2022-10-17T10:17:26;14.15;;;9.85;;
58272;SDS011;44075;42.436;18.514;2022-10-17T10:19:53;12.90;;;9.52;;
58272;SDS011;44075;42.436;18.514;2022-10-17T10:22:20;13.00;;;9.80;;
58272;SDS011;44075;42.436;18.514;2022-10-17T10:25:06;13.77;;;10.30;;
58272;SDS011;44075;42.436;18.514;2022-10-17T10:27:32;14.25;;;11.20;;
58272;SDS011;44075;42.436;18.514;2022-10-17T10:29:58;14.30;;;11.60;;
58272;SDS011;44075;42.436;18.514;2022-10-17T10:32:27;14.85;;;11.73;;
58272;SDS011;44075;42.436;18.514;2022-10-17T10:35:04;15.35;;;12.43;;
58272;SDS011;44075;42.436;18.514;2022-10-17T10:37:40;15.98;;;13.40;;
58272;SDS011;44075;42.436;18.514;2022-10-17T10:40:22;17.15;;;12.95;;
58272;SDS011;44075;42.436;18.514;2022-10-17T10:42:50;17.50;;;13.73;;
58272;SDS011;44075;42.436;18.514;2022-10-17T10:47:55;17.23;;;14.15;;
58272;SDS011;44075;42.436;18.514;2022-10-17T10:55:39;18.10;;;14.75;;
58272;SDS011;44075;42.436;18.514;2022-10-17T10:58:42;19.25;;;15.77;;
58272;SDS011;44075;42.436;18.514;2022-10-17T11:01:01;19.67;;;15.55;;
58272;SDS011;44075;42.436;18.514;2022-10-17T11:03:32;21.02;;;16.35;;
58272;SDS011;44075;42.436;18.514;2022-10-17T11:06:01;20.88;;;15.20;;
58272;SDS011;44075;42.436;18.514;2022-10-17T11:08:32;17.90;;;15.18;;
58272;SDS011;44075;42.436;18.514;2022-10-17T11:11:13;19.23;;;15.25;;
58272;SDS011;44075;42.436;18.514;2022-10-17T11:13:59;20.52;;;16.33;;
58272;SDS011;44075;42.436;18.514;2022-10-17T11:16:38;18.88;;;16.10;;
58272;SDS011;44075;42.436;18.514;2022-10-17T11:21:48;20.23;;;16.25;;
58272;SDS011;44075;42.436;18.514;2022-10-17T11:26:49;20.33;;;17.35;;
58272;SDS011;44075;42.436;18.514;2022-10-17T11:29:18;17.75;;;14.73;;
58272;SDS011;44075;42.436;18.514;2022-10-17T11:31:46;19.27;;;16.92;;
58272;SDS011;44075;42.436;18.514;2022-10-17T11:34:15;16.15;;;13.88;;
58272;SDS011;44075;42.436;18.514;2022-10-17T11:36:44;16.75;;;13.95;;
58272;SDS011;44075;42.436;18.514;2022-10-17T11:44:19;18.75;;;15.18;;
58272;SDS011;44075;42.436;18.514;2022-10-17T11:46:48;19.20;;;14.98;;
58272;SDS011;44075;42.436;18.514;2022-10-17T11:49:17;16.50;;;13.75;;
58272;SDS011;44075;42.436;18.514;2022-10-17T11:54:34;21.17;;;17.23;;
58272;SDS011;44075;42.436;18.514;2022-10-17T11:59:52;21.33;;;17.73;;
58272;SDS011;44075;42.436;18.514;2022-10-17T12:02:31;17.60;;;15.47;;
58272;SDS011;44075;42.436;18.514;2022-10-17T12:07:48;18.13;;;15.77;;
58272;SDS011;44075;42.436;18.514;2022-10-17T12:10:19;17.15;;;14.40;;
58272;SDS011;44075;42.436;18.514;2022-10-17T12:12:52;17.95;;;14.25;;
58272;SDS011;44075;42.436;18.514;2022-10-17T12:17:44;20.17;;;15.75;;
58272;SDS011;44075;42.436;18.514;2022-10-17T12:25:25;16.58;;;12.60;;
58272;SDS011;44075;42.436;18.514;2022-10-17T12:30:27;18.20;;;14.43;;
58272;SDS011;44075;42.436;18.514;2022-10-17T12:32:55;16.67;;;13.35;;
58272;SDS011;44075;42.436;18.514;2022-10-17T12:35:23;16.98;;;13.65;;
58272;SDS011;44075;42.436;18.514;2022-10-17T12:43:31;15.13;;;12.25;;
58272;SDS011;44075;42.436;18.514;2022-10-17T12:56:19;12.85;;;9.68;;
58272;SDS011;44075;42.436;18.514;2022-10-17T12:58:49;14.75;;;10.07;;
58272;SDS011;44075;42.436;18.514;2022-10-17T13:01:31;14.00;;;10.80;;
58272;SDS011;44075;42.436;18.514;2022-10-17T13:03:59;12.15;;;9.82;;
58272;SDS011;44075;42.436;18.514;2022-10-17T13:06:30;13.05;;;9.35;;
58272;SDS011;44075;42.436;18.514;2022-10-17T13:11:59;14.13;;;11.30;;
58272;SDS011;44075;42.436;18.514;2022-10-17T13:14:47;14.98;;;11.07;;
58272;SDS011;44075;42.436;18.514;2022-10-17T13:17:28;13.02;;;10.13;;
58272;SDS011;44075;42.436;18.514;2022-10-17T13:19:57;15.45;;;11.07;;
58272;SDS011;44075;42.436;18.514;2022-10-17T13:22:35;15.50;;;10.93;;
58272;SDS011;44075;42.436;18.514;2022-10-17T13:25:41;14.30;;;10.80;;
58272;SDS011;44075;42.436;18.514;2022-10-17T13:31:04;13.57;;;10.97;;
58272;SDS011;44075;42.436;18.514;2022-10-17T13:33:40;14.93;;;11.88;;
58272;SDS011;44075;42.436;18.514;2022-10-17T13:36:13;14.70;;;12.02;;
58272;SDS011;44075;42.436;18.514;2022-10-17T13:41:39;14.13;;;11.80;;
58272;SDS011;44075;42.436;18.514;2022-10-17T13:50:36;14.25;;;10.82;;
58272;SDS011;44075;42.436;18.514;2022-10-17T14:02:18;15.48;;;12.80;;
58272;SDS011;44075;42.436;18.514;2022-10-17T14:07:56;15.37;;;13.27;;
58272;SDS011;44075;42.436;18.514;2022-10-17T14:10:49;16.15;;;12.18;;
58272;SDS011;44075;42.436;18.514;2022-10-17T14:42:47;18.63;;;13.93;;
58272;SDS011;44075;42.436;18.514;2022-10-17T14:57:07;19.95;;;14.15;;
